sensor_id;sensor_type;location;lat;lon;timestamp;pressure;altitude;pressure_sealevel;temperature;humidity
51261;BME280;61705;46.228;24.812;2022-09-09T00:01:37;97439.78;;;14.65;85.26
51261;BME280;61705;46.228;24.812;2022-09-09T00:09:28;97456.66;;;14.78;84.33
51261;BME280;61705;46.228;24.812;2022-09-09T00:12:11;97458.41;;;14.65;84.95
51261;BME280;61705;46.228;24.812;2022-09-09T00:15:00;97447.44;;;14.57;85.23
51261;BME280;61705;46.228;24.812;2022-09-09T00:17:39;97463.16;;;14.45;85.96
51261;BME280;61705;46.228;24.812;2022-09-09T00:20:16;97461.16;;;14.49;85.66
51261;BME280;61705;46.228;24.812;2022-09-09T00:26:04;97462.94;;;14.36;85.91
51261;BME280;61705;46.228;24.812;2022-09-09T00:28:39;97470.03;;;14.35;85.95
51261;BME280;61705;46.228;24.812;2022-09-09T00:31:13;97476.00;;;14.39;85.85
51261;BME280;61705;46.228;24.812;2022-09-09T00:33:42;97469.19;;;14.35;85.66
51261;BME280;61705;46.228;24.812;2022-09-09T00:36:13;97481.72;;;14.33;85.92
51261;BME280;61705;46.228;24.812;2022-09-09T00:38:45;97473.84;;;14.31;85.92
51261;BME280;61705;46.228;24.812;2022-09-09T00:44:31;97459.81;;;14.29;86.44
51261;BME280;61705;46.228;24.812;2022-09-09T00:49:46;97457.72;;;14.20;86.97
51261;BME280;61705;46.228;24.812;2022-09-09T00:57:51;97452.44;;;14.47;84.77
51261;BME280;61705;46.228;24.812;2022-09-09T01:03:19;97456.97;;;14.18;85.38
51261;BME280;61705;46.228;24.812;2022-09-09T01:06:15;97460.00;;;14.12;85.84
51261;BME280;61705;46.228;24.812;2022-09-09T01:17:22;97450.34;;;13.96;86.38
51261;BME280;61705;46.228;24.812;2022-09-09T01:28:16;97457.00;;;13.75;86.86
51261;BME280;61705;46.228;24.812;2022-09-09T01:30:45;97453.97;;;13.81;86.70
51261;BME280;61705;46.228;24.812;2022-09-09T01:33:14;97451.88;;;13.72;87.13
51261;BME280;61705;46.228;24.812;2022-09-09T01:38:24;97455.50;;;13.71;87.13
51261;BME280;61705;46.228;24.812;2022-09-09T01:40:51;97463.25;;;13.74;86.86
51261;BME280;61705;46.228;24.812;2022-09-09T01:43:23;97459.66;;;13.75;86.75
51261;BME280;61705;46.228;24.812;2022-09-09T01:45:53;97464.88;;;13.62;87.05
51261;BME280;61705;46.228;24.812;2022-09-09T01:48:22;97457.00;;;13.61;87.66
51261;BME280;61705;46.228;24.812;2022-09-09T01:50:49;97460.88;;;13.84;86.79
51261;BME280;61705;46.228;24.812;2022-09-09T01:53:17;97458.81;;;13.74;86.79
51261;BME280;61705;46.228;24.812;2022-09-09T01:55:58;97456.91;;;13.77;86.96
51261;BME280;61705;46.228;24.812;2022-09-09T01:58:50;97456.34;;;13.71;87.00
51261;BME280;61705;46.228;24.812;2022-09-09T02:03:57;97447.78;;;13.81;86.31
51261;BME280;61705;46.228;24.812;2022-09-09T02:06:28;97449.53;;;13.82;86.25
51261;BME280;61705;46.228;24.812;2022-09-09T02:08:59;97445.06;;;13.68;86.67
51261;BME280;61705;46.228;24.812;2022-09-09T02:11:28;97445.72;;;13.71;86.82
51261;BME280;61705;46.228;24.812;2022-09-09T02:14:12;97447.13;;;13.77;86.64
51261;BME280;61705;46.228;24.812;2022-09-09T02:19:21;97439.75;;;13.68;86.56
51261;BME280;61705;46.228;24.812;2022-09-09T02:21:54;97437.09;;;13.68;86.60
51261;BME280;61705;46.228;24.812;2022-09-09T02:24:22;97434.25;;;13.71;86.38
51261;BME280;61705;46.228;24.812;2022-09-09T02:26:52;97437.94;;;13.68;86.36
51261;BME280;61705;46.228;24.812;2022-09-09T02:29:28;97433.84;;;13.77;85.99
51261;BME280;61705;46.228;24.812;2022-09-09T02:32:00;97430.72;;;13.70;86.04
51261;BME280;61705;46.228;24.812;2022-09-09T02:34:31;97433.31;;;13.58;86.39
51261;BME280;61705;46.228;24.812;2022-09-09T02:37:03;97431.56;;;13.57;86.78
51261;BME280;61705;46.228;24.812;2022-09-09T02:39:30;97426.19;;;13.58;86.64
51261;BME280;61705;46.228;24.812;2022-09-09T02:41:57;97422.19;;;13.65;86.28
51261;BME280;61705;46.228;24.812;2022-09-09T02:44:23;97416.97;;;13.64;86.49
51261;BME280;61705;46.228;24.812;2022-09-09T02:52:15;97422.38;;;13.62;86.67
51261;BME280;61705;46.228;24.812;2022-09-09T02:55:02;97424.66;;;13.68;86.18
51261;BME280;61705;46.228;24.812;2022-09-09T02:57:32;97425.81;;;13.64;86.25
51261;BME280;61705;46.228;24.812;2022-09-09T03:00:13;97416.97;;;13.64;85.99
51261;BME280;61705;46.228;24.812;2022-09-09T03:02:51;97428.25;;;13.67;86.00
51261;BME280;61705;46.228;24.812;2022-09-09T03:05:20;97427.69;;;13.62;86.10
51261;BME280;61705;46.228;24.812;2022-09-09T03:07:47;97424.47;;;13.57;86.39
51261;BME280;61705;46.228;24.812;2022-09-09T03:10:17;97431.31;;;13.47;86.92
51261;BME280;61705;46.228;24.812;2022-09-09T03:12:44;97435.47;;;13.51;86.74
51261;BME280;61705;46.228;24.812;2022-09-09T03:15:11;97443.34;;;13.52;86.63
51261;BME280;61705;46.228;24.812;2022-09-09T03:17:46;97436.03;;;13.56;86.51
51261;BME280;61705;46.228;24.812;2022-09-09T03:20:13;97429.09;;;13.54;86.70
51261;BME280;61705;46.228;24.812;2022-09-09T03:22:52;97433.97;;;13.47;87.04
51261;BME280;61705;46.228;24.812;2022-09-09T03:25:23;97436.41;;;13.50;86.77
51261;BME280;61705;46.228;24.812;2022-09-09T03:27:54;97423.34;;;13.61;86.23
51261;BME280;61705;46.228;24.812;2022-09-09T03:30:40;97429.75;;;13.57;86.44
51261;BME280;61705;46.228;24.812;2022-09-09T03:33:07;97438.88;;;13.53;86.49
51261;BME280;61705;46.228;24.812;2022-09-09T03:35:33;97441.72;;;13.50;86.45
51261;BME280;61705;46.228;24.812;2022-09-09T03:38:00;97449.78;;;13.48;86.66
51261;BME280;61705;46.228;24.812;2022-09-09T03:40:27;97444.47;;;13.48;86.61
51261;BME280;61705;46.228;24.812;2022-09-09T03:43:05;97447.50;;;13.57;86.15
51261;BME280;61705;46.228;24.812;2022-09-09T03:45:39;97450.34;;;13.54;86.29
51261;BME280;61705;46.228;24.812;2022-09-09T03:48:14;97441.81;;;13.48;86.59
51261;BME280;61705;46.228;24.812;2022-09-09T03:50:51;97440.19;;;13.46;86.60
51261;BME280;61705;46.228;24.812;2022-09-09T03:53:20;97436.69;;;13.45;86.82
51261;BME280;61705;46.228;24.812;2022-09-09T03:55:50;97431.50;;;13.44;86.92
51261;BME280;61705;46.228;24.812;2022-09-09T03:58:19;97435.66;;;13.48;86.83
51261;BME280;61705;46.228;24.812;2022-09-09T04:01:04;97444.09;;;13.55;86.84
51261;BME280;61705;46.228;24.812;2022-09-09T04:03:31;97438.31;;;13.62;86.30
51261;BME280;61705;46.228;24.812;2022-09-09T04:06:01;97429.69;;;13.59;86.27
51261;BME280;61705;46.228;24.812;2022-09-09T04:08:29;97430.44;;;13.46;86.63
51261;BME280;61705;46.228;24.812;2022-09-09T04:10:57;97438.56;;;13.43;86.62
51261;BME280;61705;46.228;24.812;2022-09-09T04:13:25;97435.00;;;13.44;87.11
51261;BME280;61705;46.228;24.812;2022-09-09T04:15:57;97445.25;;;13.50;87.00
51261;BME280;61705;46.228;24.812;2022-09-09T04:18:25;97442.38;;;13.54;86.88
51261;BME280;61705;46.228;24.812;2022-09-09T04:20:52;97440.88;;;13.64;86.64
51261;BME280;61705;46.228;24.812;2022-09-09T04:23:19;97451.97;;;13.70;86.34
51261;BME280;61705;46.228;24.812;2022-09-09T04:25:51;97455.03;;;13.79;86.15
51261;BME280;61705;46.228;24.812;2022-09-09T04:28:20;97466.66;;;13.90;85.74
51261;BME280;61705;46.228;24.812;2022-09-09T04:30:47;97461.94;;;13.95;85.62
51261;BME280;61705;46.228;24.812;2022-09-09T04:33:14;97481.75;;;14.04;85.10
51261;BME280;61705;46.228;24.812;2022-09-09T04:35:49;97467.91;;;13.99;85.54
51261;BME280;61705;46.228;24.812;2022-09-09T04:38:17;97475.22;;;14.10;84.94
51261;BME280;61705;46.228;24.812;2022-09-09T04:40:47;97484.69;;;14.14;84.92
51261;BME280;61705;46.228;24.812;2022-09-09T04:43:14;97502.59;;;14.25;84.22
51261;BME280;61705;46.228;24.812;2022-09-09T04:45:42;97523.13;;;14.37;83.76
51261;BME280;61705;46.228;24.812;2022-09-09T04:48:09;97514.09;;;14.39;83.31
51261;BME280;61705;46.228;24.812;2022-09-09T04:50:38;97516.16;;;14.49;82.98
51261;BME280;61705;46.228;24.812;2022-09-09T04:53:07;97523.66;;;14.56;82.78
51261;BME280;61705;46.228;24.812;2022-09-09T04:55:34;97505.81;;;14.58;82.71
51261;BME280;61705;46.228;24.812;2022-09-09T04:58:05;97526.31;;;14.71;82.44
51261;BME280;61705;46.228;24.812;2022-09-09T05:00:36;97509.19;;;14.75;82.70
51261;BME280;61705;46.228;24.812;2022-09-09T05:03:07;97518.13;;;14.74;82.80
51261;BME280;61705;46.228;24.812;2022-09-09T05:05:35;97515.97;;;14.93;82.28
51261;BME280;61705;46.228;24.812;2022-09-09T05:08:07;97497.34;;;14.93;82.64
51261;BME280;61705;46.228;24.812;2022-09-09T05:10:37;97529.84;;;14.98;82.47
51261;BME280;61705;46.228;24.812;2022-09-09T05:13:05;97514.72;;;14.99;82.68
51261;BME280;61705;46.228;24.812;2022-09-09T05:15:32;97523.88;;;15.07;82.30
51261;BME280;61705;46.228;24.812;2022-09-09T05:18:00;97516.91;;;15.19;81.83
51261;BME280;61705;46.228;24.812;2022-09-09T05:20:27;97513.09;;;15.23;81.92
51261;BME280;61705;46.228;24.812;2022-09-09T05:22:55;97515.94;;;15.20;82.18
51261;BME280;61705;46.228;24.812;2022-09-09T05:25:23;97513.94;;;15.24;82.29
51261;BME280;61705;46.228;24.812;2022-09-09T05:27:52;97518.00;;;15.29;82.70
51261;BME280;61705;46.228;24.812;2022-09-09T05:30:21;97522.47;;;15.29;82.49
51261;BME280;61705;46.228;24.812;2022-09-09T05:32:49;97521.59;;;15.15;83.16
51261;BME280;61705;46.228;24.812;2022-09-09T05:35:16;97511.28;;;15.24;83.13
51261;BME280;61705;46.228;24.812;2022-09-09T05:37:45;97513.75;;;15.39;82.63
51261;BME280;61705;46.228;24.812;2022-09-09T05:40:13;97526.47;;;15.49;82.22
51261;BME280;61705;46.228;24.812;2022-09-09T05:42:40;97512.63;;;15.56;82.12
51261;BME280;61705;46.228;24.812;2022-09-09T05:45:08;97510.25;;;15.52;82.40
51261;BME280;61705;46.228;24.812;2022-09-09T05:47:37;97507.72;;;15.50;82.70
51261;BME280;61705;46.228;24.812;2022-09-09T05:50:05;97500.34;;;15.54;82.88
51261;BME280;61705;46.228;24.812;2022-09-09T05:52:31;97504.00;;;15.53;82.99
51261;BME280;61705;46.228;24.812;2022-09-09T05:54:59;97508.13;;;15.44;83.71
51261;BME280;61705;46.228;24.812;2022-09-09T05:57:26;97507.47;;;15.40;84.30
51261;BME280;61705;46.228;24.812;2022-09-09T05:59:52;97497.75;;;15.27;84.73
51261;BME280;61705;46.228;24.812;2022-09-09T06:02:20;97491.78;;;15.23;85.21
51261;BME280;61705;46.228;24.812;2022-09-09T06:04:47;97496.78;;;15.28;85.26
51261;BME280;61705;46.228;24.812;2022-09-09T06:07:13;97510.22;;;15.26;85.32
51261;BME280;61705;46.228;24.812;2022-09-09T06:09:41;97511.47;;;15.21;85.58
51261;BME280;61705;46.228;24.812;2022-09-09T06:12:08;97506.91;;;15.23;85.50
51261;BME280;61705;46.228;24.812;2022-09-09T06:14:35;97502.75;;;15.31;84.95
51261;BME280;61705;46.228;24.812;2022-09-09T06:17:03;97505.53;;;15.30;85.04
51261;BME280;61705;46.228;24.812;2022-09-09T06:19:30;97499.44;;;15.28;85.32
51261;BME280;61705;46.228;24.812;2022-09-09T06:21:57;97503.53;;;15.33;85.15
51261;BME280;61705;46.228;24.812;2022-09-09T06:24:24;97509.63;;;15.35;85.33
51261;BME280;61705;46.228;24.812;2022-09-09T06:26:50;97509.81;;;15.45;85.17
51261;BME280;61705;46.228;24.812;2022-09-09T06:29:29;97508.56;;;15.51;85.27
51261;BME280;61705;46.228;24.812;2022-09-09T06:32:00;97504.63;;;15.56;84.71
51261;BME280;61705;46.228;24.812;2022-09-09T06:34:30;97499.06;;;15.47;84.88
51261;BME280;61705;46.228;24.812;2022-09-09T06:36:57;97506.13;;;15.60;84.93
51261;BME280;61705;46.228;24.812;2022-09-09T06:39:24;97509.91;;;15.71;84.74
51261;BME280;61705;46.228;24.812;2022-09-09T06:41:52;97517.56;;;15.88;84.43
51261;BME280;61705;46.228;24.812;2022-09-09T06:44:19;97507.03;;;15.86;84.13
51261;BME280;61705;46.228;24.812;2022-09-09T06:46:46;97502.44;;;15.88;84.49
51261;BME280;61705;46.228;24.812;2022-09-09T06:49:14;97509.88;;;16.09;84.04
51261;BME280;61705;46.228;24.812;2022-09-09T06:51:41;97510.94;;;16.06;84.10
51261;BME280;61705;46.228;24.812;2022-09-09T06:54:11;97505.53;;;16.08;84.03
51261;BME280;61705;46.228;24.812;2022-09-09T06:56:40;97521.81;;;16.16;83.97
51261;BME280;61705;46.228;24.812;2022-09-09T06:59:09;97528.97;;;16.16;83.99
51261;BME280;61705;46.228;24.812;2022-09-09T07:01:39;97533.97;;;16.20;84.21
51261;BME280;61705;46.228;24.812;2022-09-09T07:04:11;97545.78;;;16.42;83.69
51261;BME280;61705;46.228;24.812;2022-09-09T07:06:41;97551.34;;;16.51;83.02
51261;BME280;61705;46.228;24.812;2022-09-09T07:09:11;97549.28;;;16.55;82.86
51261;BME280;61705;46.228;24.812;2022-09-09T07:11:49;97550.22;;;16.54;82.84
51261;BME280;61705;46.228;24.812;2022-09-09T07:14:17;97544.19;;;16.52;82.43
51261;BME280;61705;46.228;24.812;2022-09-09T07:16:44;97544.28;;;16.50;82.27
51261;BME280;61705;46.228;24.812;2022-09-09T07:19:12;97537.53;;;16.57;82.16
51261;BME280;61705;46.228;24.812;2022-09-09T07:21:41;97541.03;;;16.71;81.90
51261;BME280;61705;46.228;24.812;2022-09-09T07:24:08;97527.31;;;16.88;81.38
51261;BME280;61705;46.228;24.812;2022-09-09T07:26:38;97516.25;;;17.05;80.80
51261;BME280;61705;46.228;24.812;2022-09-09T07:29:08;97510.13;;;17.16;79.86
51261;BME280;61705;46.228;24.812;2022-09-09T07:31:37;97510.97;;;17.41;78.82
51261;BME280;61705;46.228;24.812;2022-09-09T07:34:06;97521.53;;;17.53;78.13
51261;BME280;61705;46.228;24.812;2022-09-09T07:36:38;97517.75;;;17.45;77.49
51261;BME280;61705;46.228;24.812;2022-09-09T07:39:10;97515.31;;;17.42;77.73
51261;BME280;61705;46.228;24.812;2022-09-09T07:41:44;97509.16;;;17.52;78.31
51261;BME280;61705;46.228;24.812;2022-09-09T07:44:22;97505.38;;;17.44;78.67
51261;BME280;61705;46.228;24.812;2022-09-09T07:46:49;97504.44;;;17.56;78.01
51261;BME280;61705;46.228;24.812;2022-09-09T07:49:16;97517.69;;;17.58;78.34
51261;BME280;61705;46.228;24.812;2022-09-09T07:51:51;97516.09;;;17.55;78.35
51261;BME280;61705;46.228;24.812;2022-09-09T07:54:19;97515.25;;;17.55;78.35
51261;BME280;61705;46.228;24.812;2022-09-09T07:56:50;97511.06;;;17.74;77.54
51261;BME280;61705;46.228;24.812;2022-09-09T07:59:17;97505.75;;;17.97;76.87
51261;BME280;61705;46.228;24.812;2022-09-09T08:01:49;97497.03;;;18.06;75.85
51261;BME280;61705;46.228;24.812;2022-09-09T08:04:22;97492.53;;;18.07;75.56
51261;BME280;61705;46.228;24.812;2022-09-09T08:07:06;97482.94;;;18.15;75.09
51261;BME280;61705;46.228;24.812;2022-09-09T08:09:37;97481.44;;;18.34;74.26
51261;BME280;61705;46.228;24.812;2022-09-09T08:12:03;97465.13;;;18.48;73.62
51261;BME280;61705;46.228;24.812;2022-09-09T08:14:34;97469.13;;;18.65;73.51
51261;BME280;61705;46.228;24.812;2022-09-09T08:17:21;97466.28;;;18.66;73.32
51261;BME280;61705;46.228;24.812;2022-09-09T08:19:47;97453.59;;;18.36;74.00
51261;BME280;61705;46.228;24.812;2022-09-09T08:22:14;97460.91;;;18.23;74.31
51261;BME280;61705;46.228;24.812;2022-09-09T08:24:41;97462.81;;;18.32;74.86
51261;BME280;61705;46.228;24.812;2022-09-09T08:27:07;97462.59;;;18.35;75.47
51261;BME280;61705;46.228;24.812;2022-09-09T08:29:36;97462.94;;;18.42;74.83
51261;BME280;61705;46.228;24.812;2022-09-09T08:32:07;97461.13;;;18.42;75.21
51261;BME280;61705;46.228;24.812;2022-09-09T08:34:35;97456.50;;;18.44;75.33
51261;BME280;61705;46.228;24.812;2022-09-09T08:37:06;97465.09;;;18.70;74.55
51261;BME280;61705;46.228;24.812;2022-09-09T08:39:33;97456.97;;;18.72;74.66
51261;BME280;61705;46.228;24.812;2022-09-09T08:48:18;97443.16;;;18.88;74.02
51261;BME280;61705;46.228;24.812;2022-09-09T08:50:25;97456.66;;;18.98;73.99
51261;BME280;61705;46.228;24.812;2022-09-09T08:53:05;97439.44;;;19.00;73.73
51261;BME280;61705;46.228;24.812;2022-09-09T08:55:46;97425.44;;;19.08;73.66
51261;BME280;61705;46.228;24.812;2022-09-09T08:58:22;97435.75;;;19.12;73.46
51261;BME280;61705;46.228;24.812;2022-09-09T09:11:22;97436.03;;;20.03;72.22
51261;BME280;61705;46.228;24.812;2022-09-09T09:13:57;97439.34;;;20.16;71.66
51261;BME280;61705;46.228;24.812;2022-09-09T09:16:34;97439.66;;;20.23;72.08
51261;BME280;61705;46.228;24.812;2022-09-09T09:19:04;97436.16;;;19.92;72.68
51261;BME280;61705;46.228;24.812;2022-09-09T09:22:23;97431.25;;;19.97;72.72
51261;BME280;61705;46.228;24.812;2022-09-09T09:25:20;97420.81;;;20.03;72.76
51261;BME280;61705;46.228;24.812;2022-09-09T09:27:58;97426.84;;;19.96;72.87
51261;BME280;61705;46.228;24.812;2022-09-09T09:30:42;97431.09;;;19.98;72.70
51261;BME280;61705;46.228;24.812;2022-09-09T09:36:07;97430.25;;;19.98;72.70
51261;BME280;61705;46.228;24.812;2022-09-09T09:38:36;97436.78;;;20.05;72.79
51261;BME280;61705;46.228;24.812;2022-09-09T09:44:03;97431.53;;;20.44;71.13
51261;BME280;61705;46.228;24.812;2022-09-09T09:46:33;97429.13;;;20.41;71.27
51261;BME280;61705;46.228;24.812;2022-09-09T09:49:05;97432.38;;;20.44;71.26
51261;BME280;61705;46.228;24.812;2022-09-09T09:51:32;97425.31;;;20.43;71.42
51261;BME280;61705;46.228;24.812;2022-09-09T09:56:36;97427.53;;;20.69;70.90
51261;BME280;61705;46.228;24.812;2022-09-09T09:59:02;97425.13;;;20.66;71.08
51261;BME280;61705;46.228;24.812;2022-09-09T10:01:43;97435.69;;;20.57;71.69
51261;BME280;61705;46.228;24.812;2022-09-09T10:04:16;97427.34;;;20.51;72.20
51261;BME280;61705;46.228;24.812;2022-09-09T10:06:45;97421.22;;;20.39;72.66
51261;BME280;61705;46.228;24.812;2022-09-09T10:09:30;97429.00;;;20.42;73.29
51261;BME280;61705;46.228;24.812;2022-09-09T10:20:57;97439.03;;;20.50;74.62
51261;BME280;61705;46.228;24.812;2022-09-09T10:42:47;97525.19;;;19.85;78.82
51261;BME280;61705;46.228;24.812;2022-09-09T10:45:23;97528.06;;;19.73;80.04
51261;BME280;61705;46.228;24.812;2022-09-09T10:50:52;97553.81;;;19.32;82.89
51261;BME280;61705;46.228;24.812;2022-09-09T10:53:33;97551.69;;;19.03;84.56
51261;BME280;61705;46.228;24.812;2022-09-09T10:56:09;97547.00;;;18.84;86.41
51261;BME280;61705;46.228;24.812;2022-09-09T10:58:52;97536.78;;;18.67;87.42
51261;BME280;61705;46.228;24.812;2022-09-09T11:01:24;97527.53;;;18.60;88.83
51261;BME280;61705;46.228;24.812;2022-09-09T11:04:19;97525.84;;;18.47;91.33
51261;BME280;61705;46.228;24.812;2022-09-09T11:06:52;97540.06;;;18.48;92.25
51261;BME280;61705;46.228;24.812;2022-09-09T11:09:28;97537.53;;;18.46;92.19
51261;BME280;61705;46.228;24.812;2022-09-09T11:11:56;97537.75;;;18.55;91.70
51261;BME280;61705;46.228;24.812;2022-09-09T11:16:58;97553.06;;;18.64;92.41
51261;BME280;61705;46.228;24.812;2022-09-09T11:19:32;97554.19;;;18.73;92.42
51261;BME280;61705;46.228;24.812;2022-09-09T11:25:35;97557.34;;;18.78;91.88
51261;BME280;61705;46.228;24.812;2022-09-09T11:36:43;97552.72;;;18.91;92.36
51261;BME280;61705;46.228;24.812;2022-09-09T11:44:41;97533.44;;;19.08;92.98
51261;BME280;61705;46.228;24.812;2022-09-09T11:47:35;97540.81;;;19.16;92.96
51261;BME280;61705;46.228;24.812;2022-09-09T11:58:00;97532.19;;;19.45;92.19
51261;BME280;61705;46.228;24.812;2022-09-09T12:02:56;97524.38;;;19.41;91.85
51261;BME280;61705;46.228;24.812;2022-09-09T12:05:23;97517.69;;;19.47;91.83
51261;BME280;61705;46.228;24.812;2022-09-09T12:07:56;97511.31;;;19.48;92.07
51261;BME280;61705;46.228;24.812;2022-09-09T12:10:33;97516.78;;;19.58;91.85
51261;BME280;61705;46.228;24.812;2022-09-09T12:13:19;97517.97;;;19.65;91.50
51261;BME280;61705;46.228;24.812;2022-09-09T12:15:57;97519.09;;;19.62;91.19
51261;BME280;61705;46.228;24.812;2022-09-09T12:18:34;97519.97;;;19.63;90.92
51261;BME280;61705;46.228;24.812;2022-09-09T12:24:03;97521.88;;;19.61;90.84
51261;BME280;61705;46.228;24.812;2022-09-09T12:26:56;97519.56;;;19.68;89.98
51261;BME280;61705;46.228;24.812;2022-09-09T12:29:50;97512.25;;;19.70;88.46
51261;BME280;61705;46.228;24.812;2022-09-09T12:32:23;97513.75;;;19.83;87.62
51261;BME280;61705;46.228;24.812;2022-09-09T12:34:53;97512.66;;;19.96;86.66
51261;BME280;61705;46.228;24.812;2022-09-09T12:37:43;97507.38;;;20.05;86.70
51261;BME280;61705;46.228;24.812;2022-09-09T12:40:20;97503.03;;;20.14;87.08
51261;BME280;61705;46.228;24.812;2022-09-09T12:42:47;97500.78;;;20.19;86.65
51261;BME280;61705;46.228;24.812;2022-09-09T12:45:18;97494.72;;;20.17;86.02
51261;BME280;61705;46.228;24.812;2022-09-09T12:47:47;97497.53;;;20.16;85.48
51261;BME280;61705;46.228;24.812;2022-09-09T12:50:20;97496.44;;;20.18;85.63
51261;BME280;61705;46.228;24.812;2022-09-09T12:52:49;97491.38;;;20.25;85.48
51261;BME280;61705;46.228;24.812;2022-09-09T12:55:36;97491.59;;;20.12;84.92
51261;BME280;61705;46.228;24.812;2022-09-09T12:58:05;97484.88;;;19.97;85.25
51261;BME280;61705;46.228;24.812;2022-09-09T13:00:34;97480.16;;;19.89;85.67
51261;BME280;61705;46.228;24.812;2022-09-09T13:03:01;97484.00;;;19.86;86.11
51261;BME280;61705;46.228;24.812;2022-09-09T13:05:34;97475.78;;;19.88;86.62
51261;BME280;61705;46.228;24.812;2022-09-09T13:08:06;97479.75;;;19.52;87.59
51261;BME280;61705;46.228;24.812;2022-09-09T13:13:41;97471.34;;;19.35;88.91
51261;BME280;61705;46.228;24.812;2022-09-09T13:16:20;97465.38;;;19.32;88.40
51261;BME280;61705;46.228;24.812;2022-09-09T13:18:49;97463.66;;;19.31;88.56
51261;BME280;61705;46.228;24.812;2022-09-09T13:21:17;97453.28;;;19.37;89.00
51261;BME280;61705;46.228;24.812;2022-09-09T13:23:49;97450.81;;;19.46;88.39
51261;BME280;61705;46.228;24.812;2022-09-09T13:26:23;97450.75;;;19.57;87.93
51261;BME280;61705;46.228;24.812;2022-09-09T13:28:53;97458.22;;;19.74;86.88
51261;BME280;61705;46.228;24.812;2022-09-09T13:31:27;97451.81;;;19.86;86.16
51261;BME280;61705;46.228;24.812;2022-09-09T13:33:55;97449.00;;;19.67;85.95
51261;BME280;61705;46.228;24.812;2022-09-09T13:36:30;97445.84;;;19.83;85.69
51261;BME280;61705;46.228;24.812;2022-09-09T13:38:59;97447.66;;;20.03;85.13
51261;BME280;61705;46.228;24.812;2022-09-09T13:41:42;97450.22;;;20.15;84.33
51261;BME280;61705;46.228;24.812;2022-09-09T13:44:40;97461.28;;;20.21;84.23
51261;BME280;61705;46.228;24.812;2022-09-09T13:47:17;97450.00;;;20.27;84.43
51261;BME280;61705;46.228;24.812;2022-09-09T13:49:45;97461.28;;;20.21;84.25
51261;BME280;61705;46.228;24.812;2022-09-09T13:52:13;97457.44;;;20.14;83.72
51261;BME280;61705;46.228;24.812;2022-09-09T13:54:47;97462.97;;;19.92;84.09
51261;BME280;61705;46.228;24.812;2022-09-09T13:57:19;97461.22;;;19.81;84.52
51261;BME280;61705;46.228;24.812;2022-09-09T13:59:47;97458.28;;;19.84;84.59
51261;BME280;61705;46.228;24.812;2022-09-09T14:02:30;97451.28;;;19.72;83.83
51261;BME280;61705;46.228;24.812;2022-09-09T14:04:58;97453.00;;;19.73;84.38
51261;BME280;61705;46.228;24.812;2022-09-09T14:07:24;97453.28;;;19.79;84.14
51261;BME280;61705;46.228;24.812;2022-09-09T14:09:51;97449.69;;;19.90;83.74
51261;BME280;61705;46.228;24.812;2022-09-09T14:12:19;97449.44;;;19.93;83.53
51261;BME280;61705;46.228;24.812;2022-09-09T14:14:51;97451.97;;;19.95;83.37
51261;BME280;61705;46.228;24.812;2022-09-09T14:17:17;97450.03;;;19.97;83.42
51261;BME280;61705;46.228;24.812;2022-09-09T14:19:44;97444.06;;;19.93;83.53
51261;BME280;61705;46.228;24.812;2022-09-09T14:22:12;97438.34;;;20.07;82.83
51261;BME280;61705;46.228;24.812;2022-09-09T14:24:42;97442.72;;;20.08;82.56
51261;BME280;61705;46.228;24.812;2022-09-09T14:27:22;97431.97;;;20.08;82.72
51261;BME280;61705;46.228;24.812;2022-09-09T14:30:03;97442.28;;;20.03;82.55
51261;BME280;61705;46.228;24.812;2022-09-09T14:32:34;97439.28;;;19.97;82.90
51261;BME280;61705;46.228;24.812;2022-09-09T14:35:03;97434.25;;;20.03;82.86
51261;BME280;61705;46.228;24.812;2022-09-09T14:37:30;97428.25;;;20.00;82.80
51261;BME280;61705;46.228;24.812;2022-09-09T14:39:58;97430.81;;;20.01;82.98
51261;BME280;61705;46.228;24.812;2022-09-09T14:42:25;97437.88;;;20.02;82.97
51261;BME280;61705;46.228;24.812;2022-09-09T14:44:53;97425.88;;;19.97;82.91
51261;BME280;61705;46.228;24.812;2022-09-09T14:47:19;97430.94;;;19.90;83.36
51261;BME280;61705;46.228;24.812;2022-09-09T14:49:46;97434.88;;;19.96;83.18
51261;BME280;61705;46.228;24.812;2022-09-09T14:52:16;97437.84;;;19.93;82.95
51261;BME280;61705;46.228;24.812;2022-09-09T14:54:43;97440.09;;;19.87;82.82
51261;BME280;61705;46.228;24.812;2022-09-09T14:57:10;97447.94;;;19.79;83.63
51261;BME280;61705;46.228;24.812;2022-09-09T14:59:37;97439.19;;;19.77;84.16
51261;BME280;61705;46.228;24.812;2022-09-09T15:02:04;97445.13;;;19.81;84.14
51261;BME280;61705;46.228;24.812;2022-09-09T15:04:31;97453.69;;;19.75;84.18
51261;BME280;61705;46.228;24.812;2022-09-09T15:06:57;97444.75;;;19.64;84.99
51261;BME280;61705;46.228;24.812;2022-09-09T15:09:25;97448.00;;;19.68;85.10
51261;BME280;61705;46.228;24.812;2022-09-09T15:11:52;97453.38;;;19.68;84.86
51261;BME280;61705;46.228;24.812;2022-09-09T15:14:18;97446.31;;;19.67;85.12
51261;BME280;61705;46.228;24.812;2022-09-09T15:16:50;97442.78;;;19.67;85.52
51261;BME280;61705;46.228;24.812;2022-09-09T15:19:17;97435.00;;;19.63;85.48
51261;BME280;61705;46.228;24.812;2022-09-09T15:21:45;97441.28;;;19.53;86.55
51261;BME280;61705;46.228;24.812;2022-09-09T15:24:12;97433.28;;;19.41;87.06
51261;BME280;61705;46.228;24.812;2022-09-09T15:26:40;97437.09;;;19.39;87.51
51261;BME280;61705;46.228;24.812;2022-09-09T15:29:07;97438.78;;;19.40;87.52
51261;BME280;61705;46.228;24.812;2022-09-09T15:31:35;97427.31;;;19.38;87.59
51261;BME280;61705;46.228;24.812;2022-09-09T15:34:04;97433.28;;;19.41;87.72
51261;BME280;61705;46.228;24.812;2022-09-09T15:36:39;97435.25;;;19.39;88.01
51261;BME280;61705;46.228;24.812;2022-09-09T15:39:11;97434.94;;;19.33;88.53